createdAt,value
2023-05-25T00:02:28.227Z,95.75
2023-05-25T00:05:31.186Z,95.54
2023-05-25T00:08:33.775Z,96.22
2023-05-25T00:11:36.387Z,96.00
2023-05-25T00:14:38.809Z,95.58
2023-05-25T00:17:41.206Z,95.76
2023-05-25T00:20:44.650Z,95.43
2023-05-25T00:23:47.064Z,94.87
2023-05-25T00:26:49.437Z,95.13
2023-05-25T00:29:51.899Z,95.69
2023-05-25T00:32:55.657Z,95.57
2023-05-25T00:35:58.664Z,95.71
2023-05-25T00:39:01.104Z,95.65
2023-05-25T00:42:03.990Z,95.32
2023-05-25T00:45:07.162Z,95.48
2023-05-25T00:48:10.324Z,94.47
2023-05-25T00:51:15.810Z,94.92
2023-05-25T00:54:18.815Z,94.52
2023-05-25T00:57:25.352Z,94.73
2023-05-25T01:00:30.636Z,94.73
2023-05-25T01:03:38.100Z,93.98
2023-05-25T01:06:44.060Z,94.20
2023-05-25T01:09:47.407Z,95.05
2023-05-25T01:12:53.456Z,94.60
2023-05-25T01:15:57.071Z,94.14
2023-05-25T01:18:59.501Z,95.01
2023-05-25T01:22:40.462Z,95.09
2023-05-25T01:25:56.395Z,95.36
2023-05-25T01:29:02.134Z,94.78
2023-05-25T01:32:05.069Z,94.98
2023-05-25T01:35:11.386Z,94.81
2023-05-25T01:38:14.479Z,94.85
2023-05-25T01:41:16.985Z,94.65
2023-05-25T01:44:20.970Z,94.97
2023-05-25T01:47:32.173Z,95.13
2023-05-25T01:50:43.486Z,95.33
2023-05-25T01:53:53.583Z,95.22
2023-05-25T01:56:59.042Z,94.67
2023-05-25T02:00:03.339Z,94.69
2023-05-25T02:03:15.934Z,94.83
2023-05-25T02:06:18.548Z,94.64
2023-05-25T02:09:21.269Z,95.36
2023-05-25T02:12:23.751Z,94.45
2023-05-25T02:15:31.573Z,95.53
2023-05-25T02:18:34.395Z,94.33
2023-05-25T02:21:38.247Z,93.93
2023-05-25T02:24:40.831Z,94.44
2023-05-25T02:27:44.260Z,94.73
2023-05-25T02:30:46.772Z,94.33
2023-05-25T02:33:49.248Z,95.09
2023-05-25T02:36:51.644Z,95.12
2023-05-25T02:39:54.069Z,94.73
2023-05-25T02:42:56.956Z,94.31
2023-05-25T02:45:59.461Z,94.74
2023-05-25T02:49:02.047Z,95.34
2023-05-25T02:52:05.224Z,95.43
2023-05-25T02:55:10.365Z,95.43
2023-05-25T02:58:14.360Z,94.82
2023-05-25T03:01:36.658Z,95.12
2023-05-25T03:04:39.577Z,94.35
2023-05-25T03:07:43.263Z,94.33
2023-05-25T03:10:45.828Z,94.50
2023-05-25T03:13:48.272Z,94.76
2023-05-25T03:16:54.190Z,94.29
2023-05-25T03:19:58.553Z,94.26
2023-05-25T03:23:02.103Z,93.61
2023-05-25T03:26:04.683Z,93.18
2023-05-25T03:29:08.230Z,93.02
2023-05-25T03:32:10.893Z,93.90
2023-05-25T03:35:14.368Z,93.32
2023-05-25T03:38:16.875Z,93.03
2023-05-25T03:41:19.375Z,93.50
2023-05-25T03:44:21.772Z,92.98
2023-05-25T03:47:24.110Z,93.18
2023-05-25T03:50:26.482Z,92.43
2023-05-25T03:53:28.885Z,92.09
2023-05-25T03:56:32.049Z,91.80
2023-05-25T03:59:34.422Z,92.17
2023-05-25T04:02:36.995Z,91.77
2023-05-25T04:05:39.407Z,91.36
2023-05-25T04:08:41.780Z,90.51
2023-05-25T04:11:45.029Z,90.25
2023-05-25T04:14:47.446Z,89.66
2023-05-25T04:17:49.833Z,88.76
2023-05-25T04:20:52.353Z,89.07
2023-05-25T04:23:57.450Z,88.58
2023-05-25T04:27:02.129Z,87.85
2023-05-25T04:30:05.200Z,87.30
2023-05-25T04:33:21.936Z,87.42
2023-05-25T04:36:38.978Z,88.65
2023-05-25T04:39:43.405Z,86.32
2023-05-25T04:42:48.081Z,86.16
2023-05-25T04:45:51.472Z,86.36
2023-05-25T04:48:54.541Z,85.17
2023-05-25T04:51:56.985Z,86.69
2023-05-25T04:55:00.659Z,86.17
2023-05-25T04:58:05.766Z,86.52
2023-05-25T05:01:08.360Z,86.81
2023-05-25T05:04:10.950Z,87.24
2023-05-25T05:07:14.075Z,84.88
2023-05-25T05:10:17.842Z,86.00
2023-05-25T05:13:24.493Z,84.11
2023-05-25T05:16:27.172Z,84.54
2023-05-25T05:19:29.686Z,84.07
2023-05-25T05:22:33.287Z,83.75
2023-05-25T05:25:38.084Z,84.06
2023-05-25T05:28:40.714Z,82.60
2023-05-25T05:31:43.606Z,82.46
2023-05-25T05:34:46.570Z,82.21
2023-05-25T05:38:05.020Z,82.14
2023-05-25T05:41:13.540Z,82.23
2023-05-25T05:44:16.974Z,81.01
2023-05-25T05:47:19.437Z,81.24
2023-05-25T05:50:22.183Z,78.78
2023-05-25T05:53:24.668Z,79.39
2023-05-25T05:56:28.065Z,77.48
2023-05-25T05:59:31.229Z,77.41
2023-05-25T06:02:33.882Z,77.16
2023-05-25T06:05:36.725Z,73.75
2023-05-25T06:08:41.194Z,68.95
2023-05-25T06:11:43.615Z,66.48
2023-05-25T06:14:49.872Z,63.19
2023-05-25T06:17:52.587Z,60.63
2023-05-25T06:20:56.122Z,58.37
2023-05-25T06:23:58.575Z,57.76
2023-05-25T06:27:03.276Z,54.46
2023-05-25T06:30:06.361Z,54.23
2023-05-25T06:33:08.976Z,53.80
2023-05-25T06:36:11.865Z,53.57
2023-05-25T06:39:14.808Z,52.78
2023-05-25T06:42:18.584Z,50.80
2023-05-25T06:45:28.674Z,49.37
2023-05-25T06:48:31.161Z,51.09
2023-05-25T06:51:33.709Z,50.80
2023-05-25T06:54:36.148Z,48.22
2023-05-25T06:57:38.598Z,47.09
2023-05-25T07:00:41.330Z,46.03
2023-05-25T07:03:43.999Z,46.98
2023-05-25T07:06:48.371Z,45.99
2023-05-25T07:09:51.177Z,45.31
2023-05-25T07:12:53.664Z,45.23
2023-05-25T07:15:56.131Z,43.87
2023-05-25T07:19:00.192Z,43.68
2023-05-25T07:22:03.021Z,42.87
2023-05-25T07:25:06.202Z,42.20
2023-05-25T07:28:08.964Z,40.35
2023-05-25T07:31:12.084Z,41.83
2023-05-25T07:34:15.244Z,41.31
2023-05-25T07:37:17.747Z,41.62
2023-05-25T07:40:20.195Z,38.62
2023-05-25T07:43:22.580Z,37.24
2023-05-25T07:46:26.004Z,37.30
2023-05-25T07:49:28.526Z,38.27
2023-05-25T07:52:30.917Z,35.94
2023-05-25T07:55:33.339Z,37.20
2023-05-25T07:58:38.828Z,37.25
2023-05-25T08:01:42.745Z,36.58
2023-05-25T08:04:45.269Z,37.85
2023-05-25T08:07:47.794Z,36.30
2023-05-25T08:10:50.770Z,36.37
2023-05-25T08:13:53.709Z,37.67
2023-05-25T08:16:56.270Z,35.76
2023-05-25T08:19:58.882Z,36.33
2023-05-25T08:23:01.881Z,35.10
2023-05-25T08:26:15.485Z,36.06
2023-05-25T08:29:26.726Z,36.23
2023-05-25T08:32:29.272Z,34.63
2023-05-25T08:35:31.699Z,33.84
2023-05-25T08:38:34.115Z,37.81
2023-05-25T08:41:40.986Z,36.88
2023-05-25T08:44:43.525Z,34.54
2023-05-25T08:47:48.931Z,34.44
2023-05-25T08:50:53.159Z,35.54
2023-05-25T08:53:57.554Z,34.75
2023-05-25T08:57:15.888Z,34.85
2023-05-25T09:00:25.764Z,35.10
2023-05-25T09:03:31.169Z,34.19
2023-05-25T09:06:36.800Z,36.06
2023-05-25T09:09:40.657Z,33.15
2023-05-25T09:12:44.114Z,35.16
2023-05-25T09:15:46.646Z,36.48
2023-05-25T09:18:49.870Z,35.68
2023-05-25T09:21:59.635Z,35.89
2023-05-25T09:25:08.470Z,35.01
2023-05-25T09:28:25.654Z,34.09
2023-05-25T09:31:29.629Z,34.22
2023-05-25T09:34:35.203Z,34.89
2023-05-25T09:37:38.434Z,32.92
2023-05-25T09:40:41.153Z,33.24
2023-05-25T09:43:51.768Z,32.76
2023-05-25T09:47:07.299Z,34.31
2023-05-25T09:50:11.574Z,34.75
2023-05-25T09:53:14.117Z,34.18
2023-05-25T09:56:17.562Z,32.37
2023-05-25T09:59:21.788Z,33.88
2023-05-25T10:02:24.294Z,35.01
2023-05-25T10:05:27.186Z,32.69
2023-05-25T10:08:29.983Z,33.85
2023-05-25T10:11:34.734Z,32.13
2023-05-25T10:14:38.578Z,31.40
2023-05-25T10:17:49.085Z,30.25
2023-05-25T10:20:57.516Z,32.69
2023-05-25T10:24:24.333Z,31.47
2023-05-25T10:27:36.943Z,30.12
2023-05-25T10:30:41.303Z,32.05
2023-05-25T10:33:50.542Z,30.06
2023-05-25T10:36:56.405Z,30.51
2023-05-25T10:40:00.378Z,31.77
2023-05-25T10:43:03.652Z,31.65
2023-05-25T10:46:07.115Z,30.91
2023-05-25T10:49:10.472Z,31.31
2023-05-25T10:52:18.346Z,31.11
2023-05-25T10:55:20.788Z,31.21
2023-05-25T10:58:27.018Z,30.44
2023-05-25T11:01:31.280Z,32.55
2023-05-25T11:04:37.533Z,32.04
2023-05-25T11:07:59.938Z,32.94
2023-05-25T11:11:02.407Z,34.28
2023-05-25T11:14:04.800Z,33.92
2023-05-25T11:17:12.129Z,32.00
2023-05-25T11:20:27.658Z,31.86
2023-05-25T11:23:30.247Z,31.65
2023-05-25T11:26:34.696Z,31.47
2023-05-25T11:29:37.824Z,29.61
2023-05-25T11:32:50.586Z,28.92
2023-05-25T11:35:55.292Z,33.67
2023-05-25T11:42:07.161Z,33.13
2023-05-25T11:45:14.758Z,33.13
2023-05-25T11:48:17.303Z,31.42
2023-05-25T11:51:25.714Z,33.39
2023-05-25T11:54:29.118Z,32.87
2023-05-25T11:57:31.551Z,30.40
2023-05-25T12:00:34.172Z,30.50
2023-05-25T12:03:36.669Z,32.56
2023-05-25T12:06:40.036Z,33.19
2023-05-25T12:09:42.468Z,31.39
2023-05-25T12:12:47.194Z,34.84
2023-05-25T12:15:49.843Z,33.05
2023-05-25T12:18:53.682Z,31.76
2023-05-25T12:21:56.726Z,32.09
2023-05-25T12:24:59.192Z,31.31
2023-05-25T12:28:15.294Z,30.55
2023-05-25T12:31:28.203Z,30.72
2023-05-25T12:34:30.602Z,32.32
2023-05-25T12:37:34.315Z,30.75
2023-05-25T12:40:36.698Z,33.63
2023-05-25T12:43:40.550Z,31.61
2023-05-25T12:46:43.126Z,30.95
2023-05-25T12:49:53.160Z,30.43
2023-05-25T12:53:01.932Z,30.37
2023-05-25T12:56:04.634Z,32.57
2023-05-25T12:59:16.039Z,30.63
2023-05-25T13:02:18.492Z,30.91
2023-05-25T13:05:28.593Z,31.39
2023-05-25T13:08:31.774Z,31.51
2023-05-25T13:11:34.142Z,31.92
2023-05-25T13:14:36.578Z,31.07
2023-05-25T13:17:41.642Z,32.68
2023-05-25T13:20:45.333Z,32.99
2023-05-25T13:23:49.874Z,32.33
2023-05-25T13:26:52.392Z,34.41
2023-05-25T13:29:58.947Z,35.16
2023-05-25T13:33:11.893Z,34.41
2023-05-25T13:36:15.453Z,36.41
2023-05-25T13:39:17.871Z,36.18
2023-05-25T13:42:20.640Z,36.87
2023-05-25T13:45:43.147Z,37.75
2023-05-25T13:49:05.572Z,36.62
2023-05-25T13:52:27.861Z,39.08
2023-05-25T13:55:50.159Z,38.48
2023-05-25T13:58:52.650Z,37.79
2023-05-25T14:01:56.196Z,39.43
2023-05-25T14:04:58.738Z,40.12
2023-05-25T14:08:04.607Z,41.05
2023-05-25T14:11:07.132Z,40.00
2023-05-25T14:14:23.239Z,39.94
2023-05-25T14:17:32.181Z,39.49
2023-05-25T14:20:37.226Z,40.99
2023-05-25T14:23:39.732Z,39.31
2023-05-25T14:26:43.687Z,41.53
2023-05-25T14:29:46.268Z,42.43
2023-05-25T14:32:48.827Z,41.22
2023-05-25T14:35:51.325Z,42.13
2023-05-25T14:38:53.671Z,42.18
2023-05-25T14:41:56.355Z,42.29
2023-05-25T14:44:58.935Z,41.84
2023-05-25T14:48:15.252Z,42.67
2023-05-25T14:51:18.768Z,42.48
2023-05-25T14:54:21.257Z,42.51
2023-05-25T14:57:23.652Z,44.23
2023-05-25T15:00:26.134Z,44.75
2023-05-25T15:03:28.590Z,46.42
2023-05-25T15:06:32.155Z,45.59
2023-05-25T15:09:36.573Z,44.57
2023-05-25T15:12:39.033Z,45.07
2023-05-25T15:15:41.846Z,46.12
2023-05-25T15:18:44.927Z,45.74
2023-05-25T15:21:47.372Z,47.76
2023-05-25T15:24:49.903Z,46.39
2023-05-25T15:27:52.322Z,47.49
2023-05-25T15:30:54.719Z,49.21
2023-05-25T15:33:58.864Z,48.91
2023-05-25T15:37:02.375Z,49.09
2023-05-25T15:40:05.405Z,48.43
2023-05-25T15:43:07.803Z,50.15
2023-05-25T15:46:10.385Z,49.46
2023-05-25T15:49:12.833Z,50.09
2023-05-25T15:52:15.890Z,51.29
2023-05-25T15:55:18.530Z,50.14
2023-05-25T15:58:21.055Z,50.56
2023-05-25T16:01:23.507Z,53.71
2023-05-25T16:04:26.059Z,52.21
2023-05-25T16:07:28.503Z,53.06
2023-05-25T16:10:30.895Z,53.54
2023-05-25T16:13:33.270Z,54.22
2023-05-25T16:16:35.782Z,54.70
2023-05-25T16:19:38.249Z,54.54
2023-05-25T16:22:40.873Z,55.52
2023-05-25T16:25:43.602Z,56.35
2023-05-25T16:28:46.160Z,56.39
2023-05-25T16:31:48.621Z,57.47
2023-05-25T16:34:51.525Z,57.93
2023-05-25T16:37:53.958Z,56.79
2023-05-25T16:40:56.634Z,57.20
2023-05-25T16:43:59.774Z,57.44
2023-05-25T16:47:02.170Z,57.60
2023-05-25T16:50:05.122Z,57.94
2023-05-25T16:53:07.534Z,57.96
2023-05-25T16:56:09.913Z,58.23
2023-05-25T16:59:12.330Z,59.19
2023-05-25T17:02:14.745Z,59.54
2023-05-25T17:05:17.109Z,58.62
2023-05-25T17:08:19.508Z,59.22
2023-05-25T17:11:26.351Z,59.25
2023-05-25T17:14:28.978Z,59.84
2023-05-25T17:17:31.458Z,60.51
2023-05-25T17:20:33.986Z,59.94
2023-05-25T17:23:36.477Z,60.42
2023-05-25T17:26:38.838Z,59.97
2023-05-25T17:29:42.057Z,60.19
2023-05-25T17:32:44.551Z,59.90
2023-05-25T17:35:47.107Z,60.57
2023-05-25T17:38:50.049Z,60.54
2023-05-25T17:41:52.569Z,60.23
2023-05-25T17:44:54.938Z,60.63
2023-05-25T17:47:57.485Z,62.04
2023-05-25T17:50:59.952Z,61.81
2023-05-25T17:54:02.347Z,61.15
2023-05-25T17:57:05.108Z,61.72
2023-05-25T18:00:08.552Z,62.35
2023-05-25T18:03:16.548Z,62.19
2023-05-25T18:06:19.200Z,62.93
2023-05-25T18:09:21.707Z,63.12
2023-05-25T18:12:24.258Z,63.52
2023-05-25T18:15:26.738Z,63.76
2023-05-25T18:18:29.321Z,64.16
2023-05-25T18:21:33.479Z,64.41
2023-05-25T18:24:36.245Z,64.64
2023-05-25T18:27:38.664Z,64.40
2023-05-25T18:30:42.711Z,64.90
2023-05-25T18:33:45.194Z,65.58
2023-05-25T18:36:47.664Z,65.06
2023-05-25T18:39:50.194Z,66.48
2023-05-25T18:42:52.611Z,65.31
2023-05-25T18:45:55.054Z,65.49
2023-05-25T18:48:57.484Z,64.77
2023-05-25T18:52:01.481Z,64.05
2023-05-25T18:55:05.183Z,63.91
2023-05-25T18:58:07.741Z,65.41
2023-05-25T19:01:10.124Z,65.53
2023-05-25T19:04:12.647Z,62.29
2023-05-25T19:07:15.103Z,66.27
2023-05-25T19:10:17.890Z,67.27
2023-05-25T19:13:22.805Z,68.01
2023-05-25T19:16:25.412Z,67.63
2023-05-25T19:19:27.853Z,66.62
2023-05-25T19:22:30.235Z,65.20
2023-05-25T19:25:32.731Z,65.67
2023-05-25T19:28:35.187Z,65.12
2023-05-25T19:31:37.621Z,65.14
2023-05-25T19:34:40.131Z,64.58
2023-05-25T19:37:42.616Z,66.08
2023-05-25T19:40:45.206Z,66.25
2023-05-25T19:43:47.595Z,68.48
2023-05-25T19:46:50.061Z,66.91
2023-05-25T19:49:52.477Z,67.01
2023-05-25T19:52:54.859Z,66.77
2023-05-25T19:55:57.302Z,67.36
2023-05-25T19:58:59.790Z,67.14
2023-05-25T20:02:02.249Z,67.12
2023-05-25T20:05:05.965Z,67.21
2023-05-25T20:08:08.365Z,67.63
2023-05-25T20:11:10.806Z,67.31
2023-05-25T20:14:13.207Z,68.21
2023-05-25T20:17:15.663Z,68.81
2023-05-25T20:20:18.184Z,67.94
2023-05-25T20:23:20.906Z,68.17
2023-05-25T20:26:23.333Z,68.39
2023-05-25T20:29:26.533Z,68.45
2023-05-25T20:32:29.596Z,69.62
2023-05-25T20:35:31.993Z,69.72
2023-05-25T20:38:34.412Z,69.21
2023-05-25T20:41:36.841Z,69.79
2023-05-25T20:44:39.239Z,69.84
2023-05-25T20:47:41.695Z,70.93
2023-05-25T20:50:44.181Z,71.01
2023-05-25T20:53:46.613Z,70.73
2023-05-25T20:56:50.990Z,71.02
2023-05-25T20:59:54.268Z,70.44
2023-05-25T21:02:56.853Z,71.59
2023-05-25T21:05:59.450Z,70.88
2023-05-25T21:09:02.238Z,70.58
2023-05-25T21:12:04.800Z,70.67
2023-05-25T21:15:07.484Z,70.82
2023-05-25T21:18:10.027Z,71.41
2023-05-25T21:21:12.652Z,71.91
2023-05-25T21:24:15.090Z,71.15
2023-05-25T21:27:17.930Z,71.84
2023-05-25T21:30:20.932Z,71.31
2023-05-25T21:33:23.343Z,71.60
2023-05-25T21:36:25.880Z,70.32
2023-05-25T21:39:28.245Z,70.37
2023-05-25T21:42:30.724Z,69.94
2023-05-25T21:45:33.096Z,69.41
2023-05-25T21:48:35.539Z,69.41
2023-05-25T21:51:37.926Z,69.65
2023-05-25T21:54:40.325Z,70.14
2023-05-25T21:57:42.935Z,70.55
2023-05-25T22:00:45.467Z,70.53
2023-05-25T22:03:47.947Z,70.51
2023-05-25T22:06:50.376Z,71.19
2023-05-25T22:09:52.945Z,70.35
2023-05-25T22:12:56.353Z,71.48
2023-05-25T22:15:58.986Z,70.92
2023-05-25T22:19:01.424Z,70.89
2023-05-25T22:22:04.033Z,71.40
2023-05-25T22:25:06.684Z,71.09
2023-05-25T22:28:09.211Z,71.51
2023-05-25T22:31:11.758Z,71.87
2023-05-25T22:34:14.262Z,71.64
2023-05-25T22:37:17.432Z,71.83
2023-05-25T22:40:19.946Z,72.81
2023-05-25T22:43:22.382Z,72.41
2023-05-25T22:46:24.890Z,71.75
2023-05-25T22:49:27.290Z,72.61
2023-05-25T22:52:29.663Z,72.84
2023-05-25T22:55:32.318Z,73.16
2023-05-25T22:58:34.745Z,73.27
2023-05-25T23:01:37.165Z,72.90
2023-05-25T23:04:40.666Z,73.26
2023-05-25T23:07:43.779Z,72.92
2023-05-25T23:10:46.251Z,72.89
2023-05-25T23:13:48.721Z,73.09
2023-05-25T23:16:51.194Z,73.11
2023-05-25T23:19:53.738Z,73.56
2023-05-25T23:22:56.227Z,73.65
2023-05-25T23:25:58.730Z,74.21
2023-05-25T23:29:01.239Z,74.08
2023-05-25T23:32:04.087Z,74.23
2023-05-25T23:35:07.207Z,74.34
2023-05-25T23:38:09.661Z,74.89
2023-05-25T23:41:12.186Z,74.62
2023-05-25T23:44:15.539Z,74.53
2023-05-25T23:47:18.011Z,74.31
2023-05-25T23:50:20.571Z,74.62
2023-05-25T23:53:23.048Z,74.68
2023-05-25T23:56:27.862Z,74.28
2023-05-25T23:59:30.399Z,74.76
